sensor_id;sensor_type;location;lat;lon;timestamp;P1;durP1;ratioP1;P2;durP2;ratioP2
68866;SDS011;56451;44.804;20.476;2023-09-19T00:00:21;6.38;;;2.95;;
68866;SDS011;56451;44.804;20.476;2023-09-19T00:02:54;5.85;;;3.63;;
68866;SDS011;56451;44.804;20.476;2023-09-19T00:05:25;3.47;;;2.77;;
68866;SDS011;56451;44.804;20.476;2023-09-19T00:07:53;4.88;;;3.40;;
68866;SDS011;56451;44.804;20.476;2023-09-19T00:10:24;5.22;;;3.50;;
68866;SDS011;56451;44.804;20.476;2023-09-19T00:12:52;4.32;;;3.22;;
68866;SDS011;56451;44.804;20.476;2023-09-19T00:15:22;5.20;;;3.80;;
68866;SDS011;56451;44.804;20.476;2023-09-19T00:17:48;7.03;;;3.50;;
68866;SDS011;56451;44.804;20.476;2023-09-19T00:20:17;5.57;;;3.50;;
68866;SDS011;56451;44.804;20.476;2023-09-19T00:22:44;6.57;;;3.03;;
68866;SDS011;56451;44.804;20.476;2023-09-19T00:25:13;6.63;;;3.33;;
68866;SDS011;56451;44.804;20.476;2023-09-19T00:27:41;6.18;;;3.20;;
68866;SDS011;56451;44.804;20.476;2023-09-19T00:30:08;6.03;;;3.40;;
68866;SDS011;56451;44.804;20.476;2023-09-19T00:32:56;5.30;;;4.07;;
68866;SDS011;56451;44.804;20.476;2023-09-19T00:35:22;6.25;;;3.42;;
68866;SDS011;56451;44.804;20.476;2023-09-19T00:37:51;6.80;;;2.95;;
68866;SDS011;56451;44.804;20.476;2023-09-19T00:40:18;5.82;;;3.22;;
68866;SDS011;56451;44.804;20.476;2023-09-19T00:42:45;4.60;;;3.23;;
68866;SDS011;56451;44.804;20.476;2023-09-19T00:45:12;5.25;;;3.13;;
68866;SDS011;56451;44.804;20.476;2023-09-19T00:47:43;5.25;;;3.20;;
68866;SDS011;56451;44.804;20.476;2023-09-19T00:50:14;6.68;;;3.40;;
68866;SDS011;56451;44.804;20.476;2023-09-19T00:52:42;4.80;;;3.33;;
68866;SDS011;56451;44.804;20.476;2023-09-19T00:55:10;5.90;;;3.57;;
68866;SDS011;56451;44.804;20.476;2023-09-19T00:57:39;4.80;;;3.20;;
68866;SDS011;56451;44.804;20.476;2023-09-19T01:00:06;7.38;;;3.20;;
68866;SDS011;56451;44.804;20.476;2023-09-19T01:02:36;4.55;;;3.13;;
68866;SDS011;56451;44.804;20.476;2023-09-19T01:05:02;5.95;;;3.38;;
68866;SDS011;56451;44.804;20.476;2023-09-19T01:07:33;5.87;;;3.30;;
68866;SDS011;56451;44.804;20.476;2023-09-19T01:10:00;4.90;;;3.22;;
68866;SDS011;56451;44.804;20.476;2023-09-19T01:15:11;6.72;;;3.40;;
68866;SDS011;56451;44.804;20.476;2023-09-19T01:18:09;4.53;;;3.35;;
68866;SDS011;56451;44.804;20.476;2023-09-19T01:31:32;6.22;;;3.22;;
68866;SDS011;56451;44.804;20.476;2023-09-19T01:34:01;8.27;;;3.47;;
68866;SDS011;56451;44.804;20.476;2023-09-19T01:36:34;6.15;;;3.28;;
68866;SDS011;56451;44.804;20.476;2023-09-19T01:39:05;4.90;;;3.50;;
68866;SDS011;56451;44.804;20.476;2023-09-19T01:41:38;5.13;;;3.40;;
68866;SDS011;56451;44.804;20.476;2023-09-19T01:44:44;5.13;;;3.30;;
68866;SDS011;56451;44.804;20.476;2023-09-19T01:52:47;4.00;;;3.17;;
68866;SDS011;56451;44.804;20.476;2023-09-19T01:55:20;5.10;;;3.20;;
68866;SDS011;56451;44.804;20.476;2023-09-19T01:57:57;4.50;;;3.33;;
68866;SDS011;56451;44.804;20.476;2023-09-19T02:00:33;5.10;;;3.50;;
68866;SDS011;56451;44.804;20.476;2023-09-19T02:03:00;7.00;;;3.40;;
68866;SDS011;56451;44.804;20.476;2023-09-19T02:05:28;4.25;;;3.28;;
68866;SDS011;56451;44.804;20.476;2023-09-19T02:07:54;5.65;;;3.33;;
68866;SDS011;56451;44.804;20.476;2023-09-19T02:10:21;10.30;;;3.55;;
68866;SDS011;56451;44.804;20.476;2023-09-19T02:12:49;7.20;;;3.60;;
68866;SDS011;56451;44.804;20.476;2023-09-19T02:15:16;6.63;;;3.72;;
68866;SDS011;56451;44.804;20.476;2023-09-19T02:17:42;8.48;;;3.58;;
68866;SDS011;56451;44.804;20.476;2023-09-19T02:20:10;6.13;;;3.70;;
68866;SDS011;56451;44.804;20.476;2023-09-19T02:22:43;5.28;;;3.92;;
68866;SDS011;56451;44.804;20.476;2023-09-19T02:25:09;6.60;;;3.50;;
68866;SDS011;56451;44.804;20.476;2023-09-19T02:27:36;3.92;;;3.30;;
68866;SDS011;56451;44.804;20.476;2023-09-19T02:30:03;5.45;;;3.55;;
68866;SDS011;56451;44.804;20.476;2023-09-19T02:35:22;6.05;;;3.35;;
68866;SDS011;56451;44.804;20.476;2023-09-19T02:37:48;6.73;;;3.43;;
68866;SDS011;56451;44.804;20.476;2023-09-19T02:40:14;5.57;;;4.03;;
68866;SDS011;56451;44.804;20.476;2023-09-19T02:42:55;5.32;;;3.60;;
68866;SDS011;56451;44.804;20.476;2023-09-19T02:45:23;5.38;;;3.85;;
68866;SDS011;56451;44.804;20.476;2023-09-19T02:47:49;5.80;;;3.65;;
68866;SDS011;56451;44.804;20.476;2023-09-19T02:50:15;6.63;;;3.93;;
68866;SDS011;56451;44.804;20.476;2023-09-19T02:52:42;5.95;;;3.90;;
68866;SDS011;56451;44.804;20.476;2023-09-19T02:55:12;6.93;;;4.15;;
68866;SDS011;56451;44.804;20.476;2023-09-19T02:57:40;5.05;;;3.85;;
68866;SDS011;56451;44.804;20.476;2023-09-19T03:00:08;6.25;;;4.28;;
68866;SDS011;56451;44.804;20.476;2023-09-19T03:02:36;5.73;;;4.27;;
68866;SDS011;56451;44.804;20.476;2023-09-19T03:05:04;6.40;;;3.90;;
68866;SDS011;56451;44.804;20.476;2023-09-19T03:07:34;8.68;;;4.25;;
68866;SDS011;56451;44.804;20.476;2023-09-19T03:10:00;5.93;;;3.88;;
68866;SDS011;56451;44.804;20.476;2023-09-19T03:12:26;7.30;;;3.77;;
68866;SDS011;56451;44.804;20.476;2023-09-19T03:14:52;5.22;;;4.22;;
68866;SDS011;56451;44.804;20.476;2023-09-19T03:17:18;6.18;;;4.15;;
68866;SDS011;56451;44.804;20.476;2023-09-19T03:19:46;7.68;;;4.15;;
68866;SDS011;56451;44.804;20.476;2023-09-19T03:22:13;6.18;;;4.03;;
68866;SDS011;56451;44.804;20.476;2023-09-19T03:24:39;6.17;;;4.27;;
68866;SDS011;56451;44.804;20.476;2023-09-19T03:27:05;6.25;;;3.90;;
68866;SDS011;56451;44.804;20.476;2023-09-19T03:29:32;5.15;;;3.88;;
68866;SDS011;56451;44.804;20.476;2023-09-19T03:31:58;9.18;;;3.97;;
68866;SDS011;56451;44.804;20.476;2023-09-19T03:34:24;10.47;;;4.20;;
68866;SDS011;56451;44.804;20.476;2023-09-19T03:36:50;8.03;;;4.30;;
68866;SDS011;56451;44.804;20.476;2023-09-19T03:39:16;6.63;;;4.20;;
68866;SDS011;56451;44.804;20.476;2023-09-19T03:41:42;5.75;;;4.05;;
68866;SDS011;56451;44.804;20.476;2023-09-19T03:44:08;6.55;;;4.68;;
68866;SDS011;56451;44.804;20.476;2023-09-19T03:46:34;8.07;;;4.07;;
68866;SDS011;56451;44.804;20.476;2023-09-19T03:49:01;6.43;;;4.05;;
68866;SDS011;56451;44.804;20.476;2023-09-19T03:51:28;9.80;;;4.10;;
68866;SDS011;56451;44.804;20.476;2023-09-19T03:53:55;7.15;;;3.90;;
68866;SDS011;56451;44.804;20.476;2023-09-19T03:56:21;7.50;;;4.32;;
68866;SDS011;56451;44.804;20.476;2023-09-19T03:58:47;5.00;;;3.60;;
68866;SDS011;56451;44.804;20.476;2023-09-19T04:01:14;7.15;;;4.20;;
68866;SDS011;56451;44.804;20.476;2023-09-19T04:03:40;7.13;;;4.22;;
68866;SDS011;56451;44.804;20.476;2023-09-19T04:06:16;5.45;;;4.00;;
68866;SDS011;56451;44.804;20.476;2023-09-19T04:08:43;6.07;;;4.03;;
68866;SDS011;56451;44.804;20.476;2023-09-19T04:11:11;7.15;;;3.97;;
68866;SDS011;56451;44.804;20.476;2023-09-19T04:13:37;7.90;;;3.97;;
68866;SDS011;56451;44.804;20.476;2023-09-19T04:16:03;6.63;;;4.05;;
68866;SDS011;56451;44.804;20.476;2023-09-19T04:18:38;5.03;;;3.67;;
68866;SDS011;56451;44.804;20.476;2023-09-19T04:21:06;6.65;;;4.35;;
68866;SDS011;56451;44.804;20.476;2023-09-19T04:23:32;6.28;;;4.15;;
68866;SDS011;56451;44.804;20.476;2023-09-19T04:25:58;5.72;;;4.07;;
68866;SDS011;56451;44.804;20.476;2023-09-19T04:28:24;9.83;;;4.57;;
68866;SDS011;56451;44.804;20.476;2023-09-19T04:30:50;5.55;;;4.35;;
68866;SDS011;56451;44.804;20.476;2023-09-19T04:33:16;6.93;;;4.40;;
68866;SDS011;56451;44.804;20.476;2023-09-19T04:35:42;4.70;;;3.90;;
68866;SDS011;56451;44.804;20.476;2023-09-19T04:38:08;6.40;;;4.20;;
68866;SDS011;56451;44.804;20.476;2023-09-19T04:40:34;6.78;;;4.55;;
68866;SDS011;56451;44.804;20.476;2023-09-19T04:43:00;5.88;;;4.35;;
68866;SDS011;56451;44.804;20.476;2023-09-19T04:45:27;7.72;;;4.10;;
68866;SDS011;56451;44.804;20.476;2023-09-19T04:47:53;7.93;;;4.10;;
68866;SDS011;56451;44.804;20.476;2023-09-19T04:50:19;8.98;;;4.75;;
68866;SDS011;56451;44.804;20.476;2023-09-19T04:52:49;8.15;;;4.45;;
68866;SDS011;56451;44.804;20.476;2023-09-19T04:55:16;8.25;;;4.80;;
68866;SDS011;56451;44.804;20.476;2023-09-19T04:57:51;8.50;;;5.30;;
68866;SDS011;56451;44.804;20.476;2023-09-19T05:00:21;7.33;;;4.80;;
68866;SDS011;56451;44.804;20.476;2023-09-19T05:02:50;7.45;;;4.80;;
68866;SDS011;56451;44.804;20.476;2023-09-19T05:05:17;7.18;;;5.18;;
68866;SDS011;56451;44.804;20.476;2023-09-19T05:07:45;8.43;;;4.28;;
68866;SDS011;56451;44.804;20.476;2023-09-19T05:10:11;6.28;;;4.70;;
68866;SDS011;56451;44.804;20.476;2023-09-19T05:12:38;5.87;;;4.43;;
68866;SDS011;56451;44.804;20.476;2023-09-19T05:15:04;6.03;;;4.65;;
68866;SDS011;56451;44.804;20.476;2023-09-19T05:17:32;6.82;;;4.65;;
68866;SDS011;56451;44.804;20.476;2023-09-19T05:20:00;8.63;;;4.60;;
68866;SDS011;56451;44.804;20.476;2023-09-19T05:22:59;5.78;;;4.55;;
68866;SDS011;56451;44.804;20.476;2023-09-19T05:25:32;7.43;;;4.33;;
68866;SDS011;56451;44.804;20.476;2023-09-19T05:27:58;8.50;;;4.68;;
68866;SDS011;56451;44.804;20.476;2023-09-19T05:30:25;8.45;;;5.00;;
68866;SDS011;56451;44.804;20.476;2023-09-19T05:32:53;6.32;;;4.82;;
68866;SDS011;56451;44.804;20.476;2023-09-19T05:35:20;7.50;;;4.32;;
68866;SDS011;56451;44.804;20.476;2023-09-19T05:37:47;8.23;;;4.97;;
68866;SDS011;56451;44.804;20.476;2023-09-19T05:40:17;10.48;;;4.57;;
68866;SDS011;56451;44.804;20.476;2023-09-19T05:42:43;6.20;;;4.40;;
68866;SDS011;56451;44.804;20.476;2023-09-19T05:45:12;9.52;;;4.80;;
68866;SDS011;56451;44.804;20.476;2023-09-19T05:47:41;7.68;;;5.07;;
68866;SDS011;56451;44.804;20.476;2023-09-19T05:50:09;8.33;;;5.03;;
68866;SDS011;56451;44.804;20.476;2023-09-19T05:52:35;9.23;;;4.97;;
68866;SDS011;56451;44.804;20.476;2023-09-19T05:55:04;8.13;;;4.97;;
68866;SDS011;56451;44.804;20.476;2023-09-19T05:57:32;8.10;;;4.50;;
68866;SDS011;56451;44.804;20.476;2023-09-19T06:00:01;8.90;;;4.88;;
68866;SDS011;56451;44.804;20.476;2023-09-19T06:02:37;8.23;;;5.03;;
68866;SDS011;56451;44.804;20.476;2023-09-19T06:05:06;7.35;;;5.05;;
68866;SDS011;56451;44.804;20.476;2023-09-19T06:07:36;6.95;;;5.05;;
68866;SDS011;56451;44.804;20.476;2023-09-19T06:10:03;6.32;;;4.63;;
68866;SDS011;56451;44.804;20.476;2023-09-19T06:12:37;9.30;;;4.97;;
68866;SDS011;56451;44.804;20.476;2023-09-19T06:15:04;9.38;;;5.18;;
68866;SDS011;56451;44.804;20.476;2023-09-19T06:17:31;8.55;;;4.47;;
68866;SDS011;56451;44.804;20.476;2023-09-19T06:19:57;9.27;;;4.88;;
68866;SDS011;56451;44.804;20.476;2023-09-19T06:22:24;6.50;;;4.97;;
68866;SDS011;56451;44.804;20.476;2023-09-19T06:24:51;6.03;;;4.67;;
68866;SDS011;56451;44.804;20.476;2023-09-19T06:27:17;6.30;;;4.82;;
68866;SDS011;56451;44.804;20.476;2023-09-19T06:29:44;10.07;;;5.15;;
68866;SDS011;56451;44.804;20.476;2023-09-19T06:32:12;7.00;;;5.18;;
68866;SDS011;56451;44.804;20.476;2023-09-19T06:34:38;6.67;;;4.97;;
68866;SDS011;56451;44.804;20.476;2023-09-19T06:37:04;6.63;;;4.90;;
68866;SDS011;56451;44.804;20.476;2023-09-19T06:39:31;6.82;;;5.38;;
68866;SDS011;56451;44.804;20.476;2023-09-19T06:41:58;7.57;;;4.75;;
68866;SDS011;56451;44.804;20.476;2023-09-19T06:44:27;8.27;;;5.32;;
68866;SDS011;56451;44.804;20.476;2023-09-19T06:46:55;9.20;;;5.97;;
68866;SDS011;56451;44.804;20.476;2023-09-19T06:49:20;6.68;;;5.00;;
68866;SDS011;56451;44.804;20.476;2023-09-19T06:51:47;11.13;;;5.15;;
68866;SDS011;56451;44.804;20.476;2023-09-19T06:54:12;7.72;;;5.60;;
68866;SDS011;56451;44.804;20.476;2023-09-19T06:56:38;6.57;;;5.07;;
68866;SDS011;56451;44.804;20.476;2023-09-19T06:59:04;9.60;;;5.65;;
68866;SDS011;56451;44.804;20.476;2023-09-19T07:01:32;15.52;;;6.35;;
68866;SDS011;56451;44.804;20.476;2023-09-19T07:03:59;7.13;;;5.50;;
68866;SDS011;56451;44.804;20.476;2023-09-19T07:06:25;7.47;;;4.90;;
68866;SDS011;56451;44.804;20.476;2023-09-19T07:08:51;8.93;;;5.68;;
68866;SDS011;56451;44.804;20.476;2023-09-19T07:11:17;7.75;;;5.75;;
68866;SDS011;56451;44.804;20.476;2023-09-19T07:13:43;7.60;;;5.35;;
68866;SDS011;56451;44.804;20.476;2023-09-19T07:16:09;8.17;;;5.10;;
68866;SDS011;56451;44.804;20.476;2023-09-19T07:18:52;8.40;;;5.43;;
68866;SDS011;56451;44.804;20.476;2023-09-19T07:21:20;10.55;;;6.00;;
68866;SDS011;56451;44.804;20.476;2023-09-19T07:23:46;10.85;;;5.50;;
68866;SDS011;56451;44.804;20.476;2023-09-19T07:26:12;7.83;;;5.60;;
68866;SDS011;56451;44.804;20.476;2023-09-19T07:28:38;11.03;;;5.77;;
68866;SDS011;56451;44.804;20.476;2023-09-19T07:31:04;11.27;;;6.95;;
68866;SDS011;56451;44.804;20.476;2023-09-19T07:33:32;9.80;;;4.97;;
68866;SDS011;56451;44.804;20.476;2023-09-19T07:35:58;10.85;;;5.47;;
68866;SDS011;56451;44.804;20.476;2023-09-19T07:38:24;11.87;;;5.70;;
68866;SDS011;56451;44.804;20.476;2023-09-19T07:40:52;8.05;;;5.07;;
68866;SDS011;56451;44.804;20.476;2023-09-19T07:43:18;7.72;;;5.57;;
68866;SDS011;56451;44.804;20.476;2023-09-19T07:45:44;8.27;;;5.05;;
68866;SDS011;56451;44.804;20.476;2023-09-19T07:48:10;8.70;;;5.30;;
68866;SDS011;56451;44.804;20.476;2023-09-19T07:50:40;9.07;;;5.03;;
68866;SDS011;56451;44.804;20.476;2023-09-19T07:53:08;9.80;;;5.40;;
68866;SDS011;56451;44.804;20.476;2023-09-19T07:55:34;11.65;;;6.00;;
68866;SDS011;56451;44.804;20.476;2023-09-19T07:58:00;12.45;;;5.97;;
68866;SDS011;56451;44.804;20.476;2023-09-19T08:00:29;10.30;;;5.43;;
68866;SDS011;56451;44.804;20.476;2023-09-19T08:02:55;9.15;;;5.55;;
68866;SDS011;56451;44.804;20.476;2023-09-19T08:05:21;9.82;;;5.43;;
68866;SDS011;56451;44.804;20.476;2023-09-19T08:07:47;8.90;;;5.15;;
68866;SDS011;56451;44.804;20.476;2023-09-19T08:10:17;9.10;;;5.32;;
68866;SDS011;56451;44.804;20.476;2023-09-19T08:12:45;9.63;;;5.53;;
68866;SDS011;56451;44.804;20.476;2023-09-19T08:15:13;7.88;;;5.82;;
68866;SDS011;56451;44.804;20.476;2023-09-19T08:17:43;11.85;;;5.70;;
68866;SDS011;56451;44.804;20.476;2023-09-19T08:20:09;8.68;;;5.22;;
68866;SDS011;56451;44.804;20.476;2023-09-19T08:22:43;9.43;;;6.10;;
68866;SDS011;56451;44.804;20.476;2023-09-19T08:25:13;12.90;;;5.70;;
68866;SDS011;56451;44.804;20.476;2023-09-19T08:27:43;9.85;;;5.50;;
68866;SDS011;56451;44.804;20.476;2023-09-19T08:30:14;8.95;;;5.97;;
68866;SDS011;56451;44.804;20.476;2023-09-19T08:32:41;7.82;;;5.10;;
68866;SDS011;56451;44.804;20.476;2023-09-19T08:35:08;8.32;;;5.45;;
68866;SDS011;56451;44.804;20.476;2023-09-19T08:37:36;7.83;;;5.60;;
68866;SDS011;56451;44.804;20.476;2023-09-19T08:40:01;11.00;;;5.93;;
68866;SDS011;56451;44.804;20.476;2023-09-19T08:42:28;7.25;;;5.57;;
68866;SDS011;56451;44.804;20.476;2023-09-19T08:44:55;7.93;;;5.53;;
68866;SDS011;56451;44.804;20.476;2023-09-19T08:47:34;11.27;;;5.80;;
68866;SDS011;56451;44.804;20.476;2023-09-19T08:50:19;11.83;;;6.30;;
68866;SDS011;56451;44.804;20.476;2023-09-19T08:52:51;9.38;;;5.90;;
68866;SDS011;56451;44.804;20.476;2023-09-19T08:55:20;9.43;;;6.15;;
68866;SDS011;56451;44.804;20.476;2023-09-19T08:57:52;15.20;;;5.80;;
68866;SDS011;56451;44.804;20.476;2023-09-19T09:00:28;6.72;;;5.65;;
68866;SDS011;56451;44.804;20.476;2023-09-19T09:02:56;7.83;;;5.97;;
68866;SDS011;56451;44.804;20.476;2023-09-19T09:05:24;18.08;;;5.60;;
68866;SDS011;56451;44.804;20.476;2023-09-19T09:07:52;12.52;;;5.85;;
68866;SDS011;56451;44.804;20.476;2023-09-19T09:10:18;10.75;;;5.63;;
68866;SDS011;56451;44.804;20.476;2023-09-19T09:12:53;9.68;;;5.40;;
68866;SDS011;56451;44.804;20.476;2023-09-19T09:15:23;10.43;;;5.73;;
68866;SDS011;56451;44.804;20.476;2023-09-19T09:17:52;10.73;;;5.90;;
68866;SDS011;56451;44.804;20.476;2023-09-19T09:20:21;11.48;;;6.50;;
68866;SDS011;56451;44.804;20.476;2023-09-19T09:22:51;11.50;;;5.85;;
68866;SDS011;56451;44.804;20.476;2023-09-19T09:25:21;9.37;;;5.70;;
68866;SDS011;56451;44.804;20.476;2023-09-19T09:27:59;9.07;;;6.10;;
68866;SDS011;56451;44.804;20.476;2023-09-19T09:30:36;9.07;;;6.65;;
68866;SDS011;56451;44.804;20.476;2023-09-19T09:33:12;8.73;;;5.85;;
68866;SDS011;56451;44.804;20.476;2023-09-19T09:35:49;10.95;;;5.93;;
68866;SDS011;56451;44.804;20.476;2023-09-19T09:38:49;13.37;;;6.53;;
68866;SDS011;56451;44.804;20.476;2023-09-19T09:41:17;9.45;;;6.50;;
68866;SDS011;56451;44.804;20.476;2023-09-19T09:43:53;11.95;;;6.38;;
68866;SDS011;56451;44.804;20.476;2023-09-19T09:46:24;16.80;;;6.78;;
68866;SDS011;56451;44.804;20.476;2023-09-19T09:51:38;12.10;;;6.47;;
68866;SDS011;56451;44.804;20.476;2023-09-19T09:54:16;12.82;;;6.13;;
68866;SDS011;56451;44.804;20.476;2023-09-19T09:56:55;15.20;;;6.35;;
68866;SDS011;56451;44.804;20.476;2023-09-19T10:02:14;11.05;;;6.30;;
68866;SDS011;56451;44.804;20.476;2023-09-19T10:04:51;11.60;;;6.93;;
68866;SDS011;56451;44.804;20.476;2023-09-19T10:07:24;11.43;;;6.00;;
68866;SDS011;56451;44.804;20.476;2023-09-19T10:10:04;10.75;;;6.25;;
68866;SDS011;56451;44.804;20.476;2023-09-19T10:12:47;10.43;;;6.75;;
68866;SDS011;56451;44.804;20.476;2023-09-19T10:15:17;14.73;;;6.43;;
68866;SDS011;56451;44.804;20.476;2023-09-19T10:17:47;11.27;;;6.53;;
68866;SDS011;56451;44.804;20.476;2023-09-19T10:20:14;12.00;;;6.18;;
68866;SDS011;56451;44.804;20.476;2023-09-19T10:22:59;10.52;;;5.95;;
68866;SDS011;56451;44.804;20.476;2023-09-19T10:25:26;13.43;;;6.40;;
68866;SDS011;56451;44.804;20.476;2023-09-19T10:27:57;13.55;;;6.07;;
68866;SDS011;56451;44.804;20.476;2023-09-19T10:30:28;13.40;;;6.57;;
68866;SDS011;56451;44.804;20.476;2023-09-19T10:33:00;13.30;;;6.65;;
68866;SDS011;56451;44.804;20.476;2023-09-19T10:35:28;11.15;;;6.45;;
68866;SDS011;56451;44.804;20.476;2023-09-19T10:37:57;12.18;;;5.88;;
68866;SDS011;56451;44.804;20.476;2023-09-19T10:40:25;11.48;;;6.05;;
68866;SDS011;56451;44.804;20.476;2023-09-19T10:43:03;11.73;;;6.50;;
68866;SDS011;56451;44.804;20.476;2023-09-19T10:45:33;10.55;;;6.75;;
68866;SDS011;56451;44.804;20.476;2023-09-19T10:48:01;14.52;;;6.43;;
68866;SDS011;56451;44.804;20.476;2023-09-19T10:50:30;14.18;;;6.70;;
68866;SDS011;56451;44.804;20.476;2023-09-19T10:53:03;13.15;;;7.15;;
68866;SDS011;56451;44.804;20.476;2023-09-19T10:55:32;14.40;;;6.30;;
68866;SDS011;56451;44.804;20.476;2023-09-19T10:58:01;12.95;;;7.00;;
68866;SDS011;56451;44.804;20.476;2023-09-19T11:00:30;13.15;;;6.45;;
68866;SDS011;56451;44.804;20.476;2023-09-19T11:03:16;17.30;;;6.43;;
68866;SDS011;56451;44.804;20.476;2023-09-19T11:06:07;12.15;;;6.28;;
68866;SDS011;56451;44.804;20.476;2023-09-19T11:08:51;8.47;;;5.90;;
68866;SDS011;56451;44.804;20.476;2023-09-19T11:33:30;15.68;;;6.57;;
68866;SDS011;56451;44.804;20.476;2023-09-19T11:36:13;14.73;;;6.97;;
68866;SDS011;56451;44.804;20.476;2023-09-19T11:43:51;17.63;;;8.02;;
68866;SDS011;56451;44.804;20.476;2023-09-19T11:46:24;16.07;;;6.93;;
68866;SDS011;56451;44.804;20.476;2023-09-19T11:48:50;11.85;;;7.40;;
68866;SDS011;56451;44.804;20.476;2023-09-19T11:51:20;15.07;;;6.72;;
68866;SDS011;56451;44.804;20.476;2023-09-19T11:53:49;16.73;;;7.90;;
68866;SDS011;56451;44.804;20.476;2023-09-19T11:56:17;14.90;;;7.65;;
68866;SDS011;56451;44.804;20.476;2023-09-19T11:58:46;12.90;;;7.03;;
68866;SDS011;56451;44.804;20.476;2023-09-19T12:01:21;16.05;;;7.43;;
68866;SDS011;56451;44.804;20.476;2023-09-19T12:03:52;16.48;;;7.55;;
68866;SDS011;56451;44.804;20.476;2023-09-19T12:06:19;13.07;;;7.25;;
68866;SDS011;56451;44.804;20.476;2023-09-19T12:08:47;14.45;;;6.65;;
68866;SDS011;56451;44.804;20.476;2023-09-19T12:11:14;15.73;;;7.63;;
68866;SDS011;56451;44.804;20.476;2023-09-19T12:13:45;15.20;;;8.00;;
68866;SDS011;56451;44.804;20.476;2023-09-19T12:16:15;14.70;;;7.72;;
68866;SDS011;56451;44.804;20.476;2023-09-19T12:18:42;15.95;;;8.50;;
68866;SDS011;56451;44.804;20.476;2023-09-19T12:24:11;12.63;;;7.50;;
68866;SDS011;56451;44.804;20.476;2023-09-19T12:26:42;14.68;;;8.13;;
68866;SDS011;56451;44.804;20.476;2023-09-19T12:29:15;12.15;;;7.28;;
68866;SDS011;56451;44.804;20.476;2023-09-19T12:31:55;15.35;;;7.25;;
68866;SDS011;56451;44.804;20.476;2023-09-19T12:34:24;13.15;;;8.73;;
68866;SDS011;56451;44.804;20.476;2023-09-19T12:37:05;14.13;;;7.83;;
68866;SDS011;56451;44.804;20.476;2023-09-19T12:39:38;15.65;;;8.43;;
68866;SDS011;56451;44.804;20.476;2023-09-19T12:42:09;12.38;;;7.80;;
68866;SDS011;56451;44.804;20.476;2023-09-19T12:44:42;11.50;;;8.02;;
68866;SDS011;56451;44.804;20.476;2023-09-19T12:47:11;12.05;;;7.85;;
68866;SDS011;56451;44.804;20.476;2023-09-19T12:52:55;12.95;;;7.93;;
68866;SDS011;56451;44.804;20.476;2023-09-19T12:55:28;14.07;;;7.38;;
68866;SDS011;56451;44.804;20.476;2023-09-19T12:58:13;13.27;;;7.43;;
68866;SDS011;56451;44.804;20.476;2023-09-19T13:00:44;16.83;;;7.13;;
68866;SDS011;56451;44.804;20.476;2023-09-19T13:05:47;15.95;;;6.57;;
68866;SDS011;56451;44.804;20.476;2023-09-19T13:08:19;16.17;;;7.65;;
68866;SDS011;56451;44.804;20.476;2023-09-19T13:11:12;11.80;;;7.65;;
68866;SDS011;56451;44.804;20.476;2023-09-19T13:13:48;16.33;;;8.18;;
68866;SDS011;56451;44.804;20.476;2023-09-19T13:16:20;21.10;;;8.83;;
68866;SDS011;56451;44.804;20.476;2023-09-19T13:18:49;17.20;;;7.55;;
68866;SDS011;56451;44.804;20.476;2023-09-19T13:21:37;14.77;;;7.50;;
68866;SDS011;56451;44.804;20.476;2023-09-19T13:24:18;14.35;;;7.03;;
68866;SDS011;56451;44.804;20.476;2023-09-19T13:26:45;15.90;;;7.13;;
68866;SDS011;56451;44.804;20.476;2023-09-19T13:29:11;18.57;;;7.47;;
68866;SDS011;56451;44.804;20.476;2023-09-19T13:31:37;12.85;;;6.88;;
68866;SDS011;56451;44.804;20.476;2023-09-19T13:34:07;21.38;;;7.40;;
68866;SDS011;56451;44.804;20.476;2023-09-19T13:36:33;18.70;;;7.03;;
68866;SDS011;56451;44.804;20.476;2023-09-19T13:38:59;17.55;;;7.22;;
68866;SDS011;56451;44.804;20.476;2023-09-19T13:41:25;13.32;;;7.22;;
68866;SDS011;56451;44.804;20.476;2023-09-19T13:43:51;15.70;;;7.25;;
68866;SDS011;56451;44.804;20.476;2023-09-19T13:46:18;12.20;;;6.30;;
68866;SDS011;56451;44.804;20.476;2023-09-19T13:48:51;20.10;;;7.03;;
68866;SDS011;56451;44.804;20.476;2023-09-19T13:51:20;23.48;;;7.80;;
68866;SDS011;56451;44.804;20.476;2023-09-19T13:53:50;15.30;;;7.03;;
68866;SDS011;56451;44.804;20.476;2023-09-19T13:56:16;13.15;;;7.65;;
68866;SDS011;56451;44.804;20.476;2023-09-19T13:58:42;18.10;;;6.73;;
68866;SDS011;56451;44.804;20.476;2023-09-19T14:01:08;15.18;;;7.43;;
68866;SDS011;56451;44.804;20.476;2023-09-19T14:03:38;17.88;;;7.38;;
68866;SDS011;56451;44.804;20.476;2023-09-19T14:06:05;17.90;;;7.28;;
68866;SDS011;56451;44.804;20.476;2023-09-19T14:08:31;17.58;;;7.38;;
68866;SDS011;56451;44.804;20.476;2023-09-19T14:11:01;15.67;;;7.93;;
68866;SDS011;56451;44.804;20.476;2023-09-19T14:13:31;18.23;;;7.78;;
68866;SDS011;56451;44.804;20.476;2023-09-19T14:15:57;19.55;;;8.30;;
68866;SDS011;56451;44.804;20.476;2023-09-19T14:18:29;16.85;;;8.30;;
68866;SDS011;56451;44.804;20.476;2023-09-19T14:20:55;21.90;;;8.80;;
68866;SDS011;56451;44.804;20.476;2023-09-19T14:23:21;22.33;;;7.70;;
68866;SDS011;56451;44.804;20.476;2023-09-19T14:25:48;17.75;;;7.28;;
68866;SDS011;56451;44.804;20.476;2023-09-19T14:28:19;18.35;;;6.63;;
68866;SDS011;56451;44.804;20.476;2023-09-19T14:30:45;21.45;;;7.63;;
68866;SDS011;56451;44.804;20.476;2023-09-19T14:33:11;13.60;;;5.80;;
68866;SDS011;56451;44.804;20.476;2023-09-19T14:35:37;13.38;;;6.40;;
68866;SDS011;56451;44.804;20.476;2023-09-19T14:38:03;14.32;;;7.00;;
68866;SDS011;56451;44.804;20.476;2023-09-19T14:40:29;13.48;;;6.35;;
68866;SDS011;56451;44.804;20.476;2023-09-19T14:42:56;17.75;;;6.03;;
68866;SDS011;56451;44.804;20.476;2023-09-19T14:45:22;16.17;;;5.20;;
68866;SDS011;56451;44.804;20.476;2023-09-19T14:47:50;15.75;;;5.50;;
68866;SDS011;56451;44.804;20.476;2023-09-19T14:50:20;9.82;;;5.15;;
68866;SDS011;56451;44.804;20.476;2023-09-19T14:52:47;13.90;;;5.00;;
68866;SDS011;56451;44.804;20.476;2023-09-19T14:55:15;16.77;;;5.55;;
68866;SDS011;56451;44.804;20.476;2023-09-19T14:57:42;15.73;;;5.27;;
68866;SDS011;56451;44.804;20.476;2023-09-19T15:00:10;16.30;;;5.13;;
68866;SDS011;56451;44.804;20.476;2023-09-19T15:02:38;17.50;;;5.35;;
68866;SDS011;56451;44.804;20.476;2023-09-19T15:05:06;15.10;;;4.53;;
68866;SDS011;56451;44.804;20.476;2023-09-19T15:07:36;13.53;;;4.70;;
68866;SDS011;56451;44.804;20.476;2023-09-19T15:10:04;18.52;;;4.72;;
68866;SDS011;56451;44.804;20.476;2023-09-19T15:12:32;19.85;;;4.50;;
68866;SDS011;56451;44.804;20.476;2023-09-19T15:14:59;19.30;;;4.75;;
68866;SDS011;56451;44.804;20.476;2023-09-19T15:17:24;12.73;;;4.73;;
68866;SDS011;56451;44.804;20.476;2023-09-19T15:19:50;13.43;;;4.40;;
68866;SDS011;56451;44.804;20.476;2023-09-19T15:22:17;15.45;;;4.85;;
68866;SDS011;56451;44.804;20.476;2023-09-19T15:24:43;20.23;;;4.53;;
68866;SDS011;56451;44.804;20.476;2023-09-19T15:27:08;14.17;;;5.20;;
68866;SDS011;56451;44.804;20.476;2023-09-19T15:29:34;16.50;;;5.00;;
68866;SDS011;56451;44.804;20.476;2023-09-19T15:32:00;11.65;;;4.70;;
68866;SDS011;56451;44.804;20.476;2023-09-19T15:34:28;14.55;;;5.30;;
68866;SDS011;56451;44.804;20.476;2023-09-19T15:36:55;23.90;;;5.13;;
68866;SDS011;56451;44.804;20.476;2023-09-19T15:39:21;13.85;;;5.07;;
68866;SDS011;56451;44.804;20.476;2023-09-19T15:41:48;14.98;;;5.03;;
68866;SDS011;56451;44.804;20.476;2023-09-19T15:44:18;11.88;;;5.07;;